Time;durP1;ratioP1;P1;durP2;ratioP2;P2;SDS_P1;SDS_P2;PMS_P1;PMS_P2;Temp;Humidity;BMP_temperature;BMP_pressure;BME280_temperature;BME280_humidity;BME280_pressure;Samples;Min_cycle;Max_cycle;Signal;HPM_P1;HPM_P2
2024/01/31 00:01:21;;;;;;;;;23.75;21.75;;;;;13.47;55.84;102009.66;5118692;27;45506;-72
2024/01/31 00:03:47;;;;;;;;;21.50;18.25;;;;;13.44;55.76;102009.50;5120917;27;45439;-73
2024/01/31 00:06:16;;;;;;;;;22.75;21.50;;;;;13.41;56.09;102009.38;5120647;27;45472;-71
2024/01/31 00:08:41;;;;;;;;;23.75;20.25;;;;;13.41;56.26;102019.88;5120480;27;45309;-71
2024/01/31 00:11:08;;;;;;;;;24.00;20.50;;;;;13.39;55.96;102024.16;5120524;27;45288;-71
2024/01/31 00:13:34;;;;;;;;;26.25;20.75;;;;;13.37;55.78;102016.25;5120631;27;45978;-71
2024/01/31 00:15:59;;;;;;;;;22.75;20.75;;;;;13.33;55.84;102015.22;5120215;27;45530;-71
2024/01/31 00:18:25;;;;;;;;;21.50;18.00;;;;;13.35;56.29;102006.50;5120635;27;45437;-71
2024/01/31 00:20:50;;;;;;;;;23.75;21.50;;;;;13.34;56.07;102010.84;5120309;27;45418;-70
2024/01/31 00:23:18;;;;;;;;;20.25;20.00;;;;;13.27;55.92;102001.81;5120619;27;45395;-71
2024/01/31 00:25:44;;;;;;;;;20.50;19.25;;;;;13.30;56.28;102011.56;5120302;27;45348;-71
2024/01/31 00:28:10;;;;;;;;;20.25;20.25;;;;;13.29;56.35;102008.03;5120233;27;45366;-71
2024/01/31 00:30:35;;;;;;;;;23.50;22.25;;;;;13.09;56.57;101977.38;5120582;27;45515;-71
2024/01/31 00:33:01;;;;;;;;;24.50;21.50;;;;;13.29;56.20;102017.59;5120379;27;45595;-72
2024/01/31 00:35:26;;;;;;;;;23.50;21.25;;;;;13.26;56.58;102018.38;5120320;27;45442;-71
2024/01/31 00:37:53;;;;;;;;;23.25;20.00;;;;;13.24;56.54;102021.75;5119923;27;45436;-73
2024/01/31 00:40:19;;;;;;;;;28.00;23.25;;;;;13.21;56.38;102014.66;5120443;27;45413;-73
2024/01/31 00:42:44;;;;;;;;;21.25;20.75;;;;;13.21;56.29;102013.75;5120296;27;45568;-73
2024/01/31 00:45:13;;;;;;;;;24.50;22.75;;;;;13.20;56.76;102017.22;5120040;27;45335;-73
2024/01/31 00:47:43;;;;;;;;;26.75;22.50;;;;;13.18;56.52;102025.03;5120080;27;45820;-73
2024/01/31 00:50:10;;;;;;;;;23.00;20.75;;;;;13.16;56.66;102013.56;5120011;27;45389;-73
2024/01/31 00:52:36;;;;;;;;;19.75;19.00;;;;;13.15;56.84;102009.16;5119907;27;45387;-73
2024/01/31 00:55:02;;;;;;;;;20.00;19.25;;;;;13.14;56.70;102012.59;5119672;27;45942;-73
2024/01/31 00:57:28;;;;;;;;;20.25;17.25;;;;;13.02;57.01;101989.34;5120112;27;45250;-73
2024/01/31 00:59:53;;;;;;;;;26.75;23.00;;;;;13.12;56.51;102014.25;5119825;27;45355;-73
2024/01/31 01:02:19;;;;;;;;;25.25;21.75;;;;;13.07;56.91;102002.66;5119949;27;45227;-73
2024/01/31 01:04:44;;;;;;;;;20.50;18.25;;;;;13.03;56.58;101999.03;5119561;27;46115;-73
2024/01/31 01:07:10;;;;;;;;;22.00;20.50;;;;;13.03;56.78;102005.97;5119577;27;45368;-73
2024/01/31 01:09:36;;;;;;;;;22.75;20.25;;;;;13.01;57.03;102012.91;5119727;27;45472;-73
2024/01/31 01:12:02;;;;;;;;;23.50;20.75;;;;;12.82;57.02;101982.34;5119648;27;45356;-73
2024/01/31 01:14:28;;;;;;;;;21.25;20.00;;;;;12.99;57.10;102010.22;5119754;27;46249;-73
2024/01/31 01:16:54;;;;;;;;;25.25;19.75;;;;;12.98;57.10;102010.16;5119393;27;45330;-73
2024/01/31 01:19:19;;;;;;;;;22.00;19.25;;;;;12.97;57.19;102008.34;5119497;27;45458;-73
2024/01/31 01:21:45;;;;;;;;;20.50;19.00;;;;;12.76;57.04;101966.38;5119448;27;45449;-73
2024/01/31 01:24:11;;;;;;;;;21.00;19.50;;;;;12.96;57.16;102002.22;5119266;27;46240;-73
2024/01/31 01:26:40;;;;;;;;;20.25;20.00;;;;;12.94;56.83;101990.75;5119382;27;45358;-73
2024/01/31 01:29:07;;;;;;;;;20.50;19.25;;;;;12.97;57.18;102004.03;5119425;27;45236;-73
2024/01/31 01:31:32;;;;;;;;;26.00;20.00;;;;;12.96;57.07;101993.44;5119029;27;45499;-73
2024/01/31 01:33:59;;;;;;;;;19.00;17.50;;;;;12.96;57.01;101998.69;5119516;27;45377;-73
2024/01/31 01:36:25;;;;;;;;;22.25;19.50;;;;;12.94;56.92;102002.13;5119289;27;45331;-73
2024/01/31 01:38:51;;;;;;;;;25.75;21.75;;;;;12.92;57.12;102000.28;5119238;27;45410;-74
2024/01/31 01:41:16;;;;;;;;;22.25;17.75;;;;;12.90;57.14;102005.47;5119167;27;45477;-74
2024/01/31 01:43:42;;;;;;;;;24.00;21.50;;;;;12.90;57.42;102000.22;5118966;27;45931;-73
2024/01/31 01:46:20;;;;;;;;;20.75;18.50;;;;;12.91;57.35;102006.34;5118950;27;45749;-73
2024/01/31 01:48:47;;;;;;;;;22.50;20.00;;;;;12.89;57.53;102000.13;5119205;27;45269;-73
2024/01/31 01:51:17;;;;;;;;;22.25;19.00;;;;;12.61;57.05;101956.06;5118946;27;45461;-73
2024/01/31 01:53:45;;;;;;;;;19.00;18.25;;;;;12.88;57.30;101998.34;5118764;27;46227;-73
2024/01/31 01:56:13;;;;;;;;;19.50;18.25;;;;;12.89;57.37;102001.06;5118515;27;45553;-73
2024/01/31 01:58:40;;;;;;;;;20.50;18.25;;;;;12.72;56.95;101966.22;5118913;27;45408;-73
2024/01/31 02:01:07;;;;;;;;;24.50;18.75;;;;;12.89;57.05;102001.06;5119059;27;45345;-72
2024/01/31 02:03:35;;;;;;;;;20.50;16.75;;;;;12.88;57.39;101998.34;5117911;27;45522;-73
2024/01/31 02:06:00;;;;;;;;;19.75;18.75;;;;;12.87;57.59;101994.84;5118798;27;45234;-73
2024/01/31 02:08:27;;;;;;;;;19.75;18.25;;;;;12.88;57.51;101995.75;5118212;27;45542;-73
2024/01/31 02:10:53;;;;;;;;;23.00;20.00;;;;;12.86;57.14;101992.16;5118601;27;45443;-73
2024/01/31 02:13:18;;;;;;;;;22.25;20.25;;;;;12.89;57.25;101985.31;5118284;27;45839;-73
2024/01/31 02:15:55;;;;;;;;;22.50;18.25;;;;;12.90;57.43;101986.22;5118653;27;45525;-73
2024/01/31 02:18:27;;;;;;;;;25.25;23.00;;;;;12.82;57.41;101974.50;5118535;27;45321;-73
2024/01/31 02:20:54;;;;;;;;;24.00;20.00;;;;;12.89;57.22;101984.41;5118574;27;45486;-73
2024/01/31 02:23:20;;;;;;;;;23.25;20.00;;;;;12.89;57.44;101985.31;5118189;27;45511;-73
2024/01/31 02:25:46;;;;;;;;;26.75;22.00;;;;;12.89;57.24;101980.06;5117923;27;45566;-73
2024/01/31 02:28:12;;;;;;;;;24.25;21.50;;;;;12.90;57.41;101984.47;5118188;27;45428;-73
2024/01/31 02:30:38;;;;;;;;;25.50;22.50;;;;;12.63;57.20;101933.44;5118448;27;45337;-73
2024/01/31 02:33:03;;;;;;;;;23.75;20.75;;;;;12.86;57.56;101963.31;5116988;27;46421;-73
2024/01/31 02:35:33;;;;;;;;;27.25;25.25;;;;;12.71;57.32;101932.06;5118377;27;45402;-73
2024/01/31 02:38:00;;;;;;;;;14.75;14.75;;;;;12.87;57.30;101963.38;5118601;27;45480;-73
2024/01/31 02:40:26;;;;;;;;;22.75;20.00;;;;;12.87;57.24;101955.50;5118440;27;46049;-73
2024/01/31 02:42:52;;;;;;;;;23.00;20.25;;;;;12.87;57.43;101971.25;5120074;27;45294;-73
2024/01/31 02:45:18;;;;;;;;;20.50;18.00;;;;;12.88;57.27;101965.16;5121596;27;45827;-73
2024/01/31 02:47:44;;;;;;;;;24.00;19.50;;;;;12.69;57.16;101934.63;5121713;27;45518;-73
2024/01/31 02:50:09;;;;;;;;;23.00;21.00;;;;;12.85;57.50;101967.66;5122193;27;45469;-73
2024/01/31 02:52:35;;;;;;;;;23.50;22.00;;;;;12.76;57.13;101956.75;5121893;27;46121;-73
2024/01/31 02:55:02;;;;;;;;;20.75;19.00;;;;;12.76;57.24;101951.50;5121738;27;45359;-73
2024/01/31 02:57:29;;;;;;;;;21.50;20.75;;;;;12.80;56.98;101960.41;5121881;27;45435;-73
2024/01/31 02:59:54;;;;;;;;;20.50;18.75;;;;;12.78;57.37;101965.59;5122244;27;45529;-73
2024/01/31 03:02:20;;;;;;;;;27.00;23.75;;;;;12.69;57.31;101945.13;5124829;27;46151;-73
2024/01/31 03:04:46;;;;;;;;;26.00;24.00;;;;;12.73;57.15;101952.28;5125324;27;45378;-74
2024/01/31 03:07:14;;;;;;;;;28.25;24.75;;;;;12.74;57.77;101940.94;5124648;27;45323;-73
2024/01/31 03:09:40;;;;;;;;;24.00;23.00;;;;;12.78;57.45;101948.97;5105983;27;45376;-73
2024/01/31 03:12:06;;;;;;;;;25.75;24.50;;;;;12.77;57.15;101937.56;5125073;27;45928;-74
2024/01/31 03:14:36;;;;;;;;;27.75;24.50;;;;;12.46;57.41;101875.06;5125101;27;45176;-73
2024/01/31 03:17:02;;;;;;;;;26.00;24.00;;;;;12.79;57.33;101933.28;5125166;27;45328;-72
2024/01/31 03:19:28;;;;;;;;;29.25;23.50;;;;;12.74;57.17;101933.09;5124808;27;45515;-73
2024/01/31 03:21:54;;;;;;;;;25.25;20.75;;;;;12.75;57.48;101939.22;5124906;27;45435;-72
2024/01/31 03:24:21;;;;;;;;;28.00;26.00;;;;;12.75;57.48;101933.97;5124466;27;45305;-73
2024/01/31 03:26:47;;;;;;;;;32.75;29.00;;;;;12.75;57.25;101928.72;5124602;27;45512;-73
2024/01/31 03:29:12;;;;;;;;;28.25;24.50;;;;;12.72;56.79;101929.50;5125372;27;45142;-73
2024/01/31 03:31:39;;;;;;;;;26.00;20.75;;;;;12.48;57.24;101895.25;5124836;27;45503;-74
2024/01/31 03:34:05;;;;;;;;;30.50;25.00;;;;;12.71;57.08;101927.72;5125454;27;45491;-73
2024/01/31 03:36:32;;;;;;;;;33.25;27.75;;;;;12.70;57.25;101928.53;5125012;27;45300;-73
2024/01/31 03:38:58;;;;;;;;;29.50;25.00;;;;;12.70;57.52;101925.91;5124251;27;45292;-73
2024/01/31 03:41:27;;;;;;;;;30.00;26.00;;;;;12.69;57.34;101929.38;5123964;27;45987;-74
2024/01/31 03:43:54;;;;;;;;;25.25;22.00;;;;;12.63;57.37;101907.22;5124607;27;45363;-73
2024/01/31 03:46:20;;;;;;;;;25.25;23.75;;;;;11.69;57.24;101744.19;5124127;27;45277;-72
2024/01/31 03:48:47;;;;;;;;;27.00;24.75;;;;;12.62;57.14;101901.09;5124327;27;45369;-73
2024/01/31 03:51:19;;;;;;;;;33.00;26.50;;;;;12.67;57.31;101914.41;5122961;27;46703;-73
2024/01/31 03:53:46;;;;;;;;;30.25;28.00;;;;;12.67;57.07;101919.63;5124167;27;45597;-72
2024/01/31 03:56:12;;;;;;;;;36.75;28.00;;;;;12.61;56.96;101906.28;5123690;27;45375;-73
2024/01/31 03:58:38;;;;;;;;;30.25;26.00;;;;;12.56;57.31;101913.94;5123937;27;45465;-73
2024/01/31 04:01:04;;;;;;;;;30.00;26.50;;;;;12.42;57.26;101896.72;5123919;27;45373;-73
2024/01/31 04:03:29;;;;;;;;;32.50;26.75;;;;;12.60;57.24;101933.34;5123208;27;45537;-73
2024/01/31 04:05:55;;;;;;;;;30.50;27.50;;;;;12.59;57.09;101928.91;5123908;27;45328;-73
2024/01/31 04:08:21;;;;;;;;;34.50;28.50;;;;;12.61;57.38;101938.63;5124480;27;45508;-73
2024/01/31 04:10:47;;;;;;;;;26.00;24.50;;;;;12.50;57.43;101913.69;5123496;27;45311;-73
2024/01/31 04:13:13;;;;;;;;;28.50;27.00;;;;;12.57;57.15;101936.69;5123913;27;45226;-72
2024/01/31 04:15:39;;;;;;;;;33.00;27.00;;;;;12.56;57.62;101941.88;5124674;27;45259;-73
2024/01/31 04:18:09;;;;;;;;;30.50;26.00;;;;;12.56;57.27;101941.88;5124556;27;45320;-73
2024/01/31 04:20:40;;;;;;;;;36.50;31.00;;;;;12.54;57.29;101947.94;5121654;27;45393;-73
2024/01/31 04:23:07;;;;;;;;;29.50;25.75;;;;;12.54;57.09;101947.94;5123982;27;45424;-73
2024/01/31 04:25:32;;;;;;;;;29.25;24.75;;;;;12.52;57.35;101946.09;5123613;27;45303;-73
2024/01/31 04:27:58;;;;;;;;;29.00;25.25;;;;;12.53;57.14;101953.13;5123566;27;45670;-73
2024/01/31 04:30:24;;;;;;;;;31.50;26.75;;;;;12.51;57.38;101960.00;5124100;27;45313;-72
2024/01/31 04:32:49;;;;;;;;;25.75;25.50;;;;;12.50;57.09;101953.00;5124194;27;45309;-73
2024/01/31 04:35:15;;;;;;;;;34.75;30.75;;;;;12.49;57.17;101957.34;5123503;27;44707;-73
2024/01/31 04:37:40;;;;;;;;;30.50;27.75;;;;;12.49;57.34;101952.09;5125317;27;45232;-73
2024/01/31 04:40:10;;;;;;;;;27.75;23.75;;;;;12.51;57.08;101953.06;5123766;27;45431;-74
2024/01/31 04:42:38;;;;;;;;;32.50;27.75;;;;;12.52;56.76;101946.97;5121569;27;45325;-73
2024/01/31 04:45:06;;;;;;;;;34.25;28.50;;;;;12.50;56.95;101942.50;5121825;27;45514;-72
2024/01/31 04:47:33;;;;;;;;;28.75;25.50;;;;;12.47;57.17;101935.41;5105101;27;45325;-72
2024/01/31 04:49:59;;;;;;;;;28.00;24.00;;;;;12.47;56.90;101947.59;5123146;27;45587;-73
2024/01/31 04:52:25;;;;;;;;;28.75;26.25;;;;;12.43;56.99;101949.19;5123053;27;45319;-73
2024/01/31 04:54:52;;;;;;;;;31.00;25.50;;;;;12.40;57.32;101951.69;5122967;27;45379;-72
2024/01/31 04:57:19;;;;;;;;;26.75;24.50;;;;;12.39;57.28;101960.34;5104175;27;45682;-73
2024/01/31 04:59:45;;;;;;;;;31.75;26.50;;;;;12.36;57.31;101961.97;5103986;27;46032;-72
2024/01/31 05:02:10;;;;;;;;;30.75;25.75;;;;;12.28;57.83;101952.03;5123390;27;45375;-73
2024/01/31 05:04:37;;;;;;;;;29.75;25.75;;;;;12.36;57.49;101969.81;5122833;27;45227;-73
2024/01/31 05:07:04;;;;;;;;;30.50;26.25;;;;;12.32;57.15;101959.19;5123615;27;45490;-73
2024/01/31 05:09:30;;;;;;;;;30.50;27.50;;;;;12.31;57.30;101957.41;5122843;27;45365;-73
2024/01/31 05:11:57;;;;;;;;;27.00;23.00;;;;;12.33;57.46;101962.69;5123622;27;45448;-73
2024/01/31 05:14:23;;;;;;;;;29.25;24.75;;;;;12.28;57.30;101957.25;5123028;27;45373;-73
2024/01/31 05:16:50;;;;;;;;;29.25;20.00;;;;;12.31;57.34;101969.59;5121942;27;45471;-73
2024/01/31 05:19:16;;;;;;;;;25.50;22.25;;;;;12.16;57.27;101946.22;5122390;27;45378;-72
2024/01/31 05:21:52;;;;;;;;;33.75;24.75;;;;;12.24;57.22;101967.53;5123230;27;45680;-73
2024/01/31 05:24:18;;;;;;;;;22.75;22.00;;;;;12.28;57.24;101978.22;5121076;27;45226;-72
2024/01/31 05:26:46;;;;;;;;;32.75;26.25;;;;;12.15;57.37;101960.13;5123092;27;45498;-73
2024/01/31 05:29:12;;;;;;;;;25.75;25.25;;;;;12.27;57.02;101996.50;5122634;27;45480;-73
2024/01/31 05:31:38;;;;;;;;;28.25;24.75;;;;;12.26;57.09;101992.09;5122163;27;45408;-72
2024/01/31 05:34:03;;;;;;;;;27.25;23.75;;;;;12.25;57.12;101998.13;5123782;27;45324;-73
2024/01/31 05:36:29;;;;;;;;;26.25;24.25;;;;;12.09;57.19;101968.59;5123117;27;45303;-73
2024/01/31 05:38:56;;;;;;;;;28.00;25.25;;;;;12.24;57.29;101980.66;5122942;27;45469;-73
2024/01/31 05:41:22;;;;;;;;;21.50;20.50;;;;;12.14;57.25;101974.06;5122433;27;45481;-73
2024/01/31 05:43:48;;;;;;;;;25.50;23.25;;;;;12.16;57.19;101977.66;5121754;27;45234;-71
2024/01/31 05:46:16;;;;;;;;;30.25;26.50;;;;;12.19;57.28;101976.91;5123475;27;45480;-73
2024/01/31 05:48:46;;;;;;;;;33.00;27.25;;;;;11.97;57.11;101939.22;5123315;27;45368;-73
2024/01/31 05:51:13;;;;;;;;;29.75;26.75;;;;;12.09;57.02;101960.75;5121951;27;45633;-72
2024/01/31 05:53:39;;;;;;;;;29.50;25.25;;;;;12.03;57.10;101949.09;5119079;27;45596;-72
2024/01/31 05:56:05;;;;;;;;;29.25;25.00;;;;;12.11;57.19;101964.34;5119041;27;45565;-72
2024/01/31 05:58:31;;;;;;;;;30.00;25.00;;;;;12.15;57.03;101965.38;5118679;27;45561;-72
2024/01/31 06:00:57;;;;;;;;;32.25;25.00;;;;;12.19;57.15;101974.28;5118374;27;45573;-72
2024/01/31 06:03:24;;;;;;;;;28.00;24.75;;;;;12.17;57.24;101973.31;5118556;27;45304;-72
2024/01/31 06:05:51;;;;;;;;;32.00;26.75;;;;;12.06;57.18;101960.63;5118791;27;45553;-72
2024/01/31 06:08:18;;;;;;;;;24.75;23.75;;;;;12.13;56.93;101967.91;5118622;27;46161;-72
2024/01/31 06:10:46;;;;;;;;;31.25;25.25;;;;;12.01;57.23;101943.78;5118597;27;45413;-72
2024/01/31 06:13:12;;;;;;;;;23.50;20.75;;;;;12.12;57.09;101966.13;5118576;27;45386;-72
2024/01/31 06:15:37;;;;;;;;;24.00;21.75;;;;;12.11;57.16;101966.94;5118299;27;45298;-72
2024/01/31 06:18:03;;;;;;;;;25.00;23.00;;;;;12.08;57.21;101972.06;5118387;27;45517;-73
2024/01/31 06:20:29;;;;;;;;;18.25;16.50;;;;;12.08;57.13;101966.81;5118379;27;45317;-72
2024/01/31 06:22:54;;;;;;;;;32.00;27.25;;;;;12.08;57.21;101976.41;5118693;27;45354;-72
2024/01/31 06:25:20;;;;;;;;;27.75;24.75;;;;;11.99;57.20;101963.75;5118609;27;45294;-72
2024/01/31 06:27:46;;;;;;;;;33.00;24.75;;;;;12.06;57.18;101975.44;5118511;27;45478;-72
2024/01/31 06:30:19;;;;;;;;;26.50;23.50;;;;;12.03;57.04;101968.31;5118468;27;45356;-72
2024/01/31 06:32:47;;;;;;;;;24.75;23.25;;;;;12.04;57.12;101972.75;5118619;27;45308;-72
2024/01/31 06:35:14;;;;;;;;;25.75;22.00;;;;;12.05;57.06;101974.53;5118670;27;45467;-72
2024/01/31 06:37:39;;;;;;;;;26.50;24.00;;;;;12.03;57.25;101972.66;5118262;27;45335;-72
2024/01/31 06:40:08;;;;;;;;;29.00;25.25;;;;;12.02;57.34;101978.75;5118122;27;45302;-72
2024/01/31 06:42:33;;;;;;;;;26.00;23.75;;;;;12.00;57.19;101973.44;5118189;27;45525;-72
2024/01/31 06:44:59;;;;;;;;;23.00;22.50;;;;;11.98;57.21;101967.22;5118341;27;45442;-73
2024/01/31 06:47:25;;;;;;;;;24.75;20.50;;;;;11.85;57.35;101949.09;5118322;27;45360;-72
2024/01/31 06:49:50;;;;;;;;;24.75;22.00;;;;;11.96;57.22;101971.50;5118153;27;45448;-72
2024/01/31 06:52:16;;;;;;;;;26.75;23.25;;;;;11.97;57.32;101970.66;5118419;27;45229;-72
2024/01/31 06:54:42;;;;;;;;;33.25;25.00;;;;;11.96;57.35;101976.72;5118379;27;45570;-72
2024/01/31 06:57:07;;;;;;;;;28.25;23.50;;;;;11.95;57.20;101980.16;5118019;27;45367;-73
2024/01/31 06:59:33;;;;;;;;;26.50;22.00;;;;;11.94;57.13;101983.63;5118098;27;45300;-73
2024/01/31 07:01:59;;;;;;;;;30.75;24.75;;;;;11.93;57.41;101979.19;5117116;27;45478;-72
2024/01/31 07:04:25;;;;;;;;;21.75;20.50;;;;;11.92;57.21;101983.53;5116966;27;45533;-72
2024/01/31 07:06:51;;;;;;;;;28.00;23.00;;;;;11.91;57.49;101989.59;5116961;27;46109;-72
2024/01/31 07:09:17;;;;;;;;;23.50;22.25;;;;;11.90;57.08;101989.53;5116942;27;45376;-73
2024/01/31 07:11:43;;;;;;;;;24.50;21.75;;;;;11.90;57.12;101986.91;5116328;27;45399;-73
2024/01/31 07:14:08;;;;;;;;;31.50;23.00;;;;;11.92;57.30;101988.78;5118098;27;45379;-73
2024/01/31 07:16:35;;;;;;;;;26.25;23.00;;;;;11.90;57.21;101986.91;5117779;27;45391;-72
2024/01/31 07:19:01;;;;;;;;;27.25;24.25;;;;;11.80;56.93;101969.84;5118470;27;45457;-72
2024/01/31 07:21:31;;;;;;;;;27.00;22.50;;;;;11.97;56.93;102001.19;5118896;27;45318;-72
2024/01/31 07:23:57;;;;;;;;;33.25;24.75;;;;;11.98;56.79;102001.28;5116613;27;45379;-71
2024/01/31 07:26:28;;;;;;;;;25.75;22.50;;;;;11.88;57.06;101988.53;5116545;27;45478;-72
2024/01/31 07:28:54;;;;;;;;;29.75;24.25;;;;;12.01;56.60;102001.41;5119691;27;45552;-72
2024/01/31 07:31:20;;;;;;;;;25.75;22.75;;;;;12.05;56.63;102010.31;5121103;27;45400;-71
2024/01/31 07:33:46;;;;;;;;;22.50;20.25;;;;;12.04;56.70;101998.06;5121236;27;45498;-72
2024/01/31 07:36:13;;;;;;;;;26.25;23.50;;;;;12.11;56.39;102014.09;5121290;27;46255;-72
2024/01/31 07:38:43;;;;;;;;;21.50;20.25;;;;;12.13;56.30;102012.44;5120965;27;45309;-71
2024/01/31 07:41:10;;;;;;;;;24.25;22.50;;;;;12.20;56.03;102015.38;5120968;27;45426;-72
2024/01/31 07:43:36;;;;;;;;;25.75;22.25;;;;;12.01;55.95;101980.44;5121120;27;45551;-72
2024/01/31 07:46:03;;;;;;;;;27.50;23.50;;;;;12.30;56.02;102012.38;5108569;27;46117;-72
2024/01/31 07:48:30;;;;;;;;;26.50;22.50;;;;;12.36;55.68;102033.63;5100005;27;45446;-71
2024/01/31 07:50:56;;;;;;;;;27.25;23.25;;;;;12.42;55.93;102030.38;5100138;27;45291;-72
2024/01/31 07:53:21;;;;;;;;;26.00;22.50;;;;;12.31;55.49;102007.22;5100501;27;45466;-72
2024/01/31 07:55:47;;;;;;;;;27.50;24.00;;;;;12.52;55.30;102043.97;5100066;27;45996;-72
2024/01/31 07:58:12;;;;;;;;;33.50;31.00;;;;;12.59;55.44;102045.13;5099878;27;45500;-73
2024/01/31 08:00:38;;;;;;;;;22.75;21.25;;;;;12.67;55.29;102050.72;5099917;27;45389;-72
2024/01/31 08:03:04;;;;;;;;;26.00;21.50;;;;;12.71;55.26;102048.34;5100378;27;45920;-72
2024/01/31 08:05:29;;;;;;;;;27.25;24.25;;;;;12.79;54.98;102059.16;5099748;27;45468;-72
2024/01/31 08:07:55;;;;;;;;;24.00;21.25;;;;;12.87;54.94;102060.41;5099974;27;45264;-72
2024/01/31 08:10:20;;;;;;;;;31.25;27.00;;;;;12.94;54.81;102066.81;5100273;27;45393;-72
2024/01/31 08:12:48;;;;;;;;;33.25;29.75;;;;;12.99;54.51;102067.94;5100026;27;45356;-72
2024/01/31 08:15:14;;;;;;;;;23.00;21.75;;;;;13.06;54.57;102071.72;5099759;27;45301;-72
2024/01/31 08:17:39;;;;;;;;;27.25;22.75;;;;;13.13;54.10;102074.69;5099438;27;45450;-72
2024/01/31 08:20:06;;;;;;;;;26.00;22.75;;;;;13.17;54.02;102072.19;5099712;27;45376;-72
2024/01/31 08:22:35;;;;;;;;;25.50;22.50;;;;;13.16;53.71;102071.28;5099703;27;45462;-75
2024/01/31 08:25:01;;;;;;;;;22.00;20.75;;;;;12.18;53.67;101891.28;5098773;27;45486;-75
2024/01/31 08:27:26;;;;;;;;;26.00;25.25;;;;;13.39;53.43;102095.97;5099182;27;45489;-75
2024/01/31 08:29:52;;;;;;;;;25.00;22.50;;;;;13.30;53.25;102064.06;5100060;27;45413;-74
2024/01/31 08:32:18;;;;;;;;;21.25;20.00;;;;;13.48;53.28;102082.31;5081719;27;45469;-74
2024/01/31 08:34:44;;;;;;;;;28.50;22.50;;;;;13.47;52.74;102080.53;5098129;27;45361;-74
2024/01/31 08:37:09;;;;;;;;;26.75;23.00;;;;;13.41;52.87;102064.50;5099285;27;45543;-74
2024/01/31 08:39:35;;;;;;;;;25.25;20.00;;;;;13.73;52.73;102098.28;5099071;27;45514;-75
2024/01/31 08:42:01;;;;;;;;;30.75;25.00;;;;;13.84;52.69;102103.97;5098050;27;45422;-74
2024/01/31 08:44:26;;;;;;;;;15.50;15.00;;;;;13.72;52.20;102056.19;5099321;27;45411;-75
2024/01/31 08:46:53;;;;;;;;;23.25;22.00;;;;;14.06;51.96;102108.38;5099436;27;45285;-75
2024/01/31 08:49:21;;;;;;;;;21.50;20.75;;;;;14.95;51.37;102082.03;5099337;27;45211;-75
2024/01/31 08:51:47;;;;;;;;;25.50;21.75;;;;;16.28;48.88;102051.41;5099422;27;45402;-75
2024/01/31 08:54:13;;;;;;;;;29.00;24.00;;;;;17.73;46.48;102076.56;5099011;27;46210;-75
2024/01/31 08:56:39;;;;;;;;;27.75;25.00;;;;;18.43;43.99;102028.84;5098999;27;45252;-76
2024/01/31 08:59:04;;;;;;;;;28.00;26.00;;;;;19.54;42.40;102065.44;5099307;27;45306;-76
2024/01/31 09:01:30;;;;;;;;;26.25;26.00;;;;;20.12;41.35;102058.44;5099318;27;45341;-76
2024/01/31 09:03:55;;;;;;;;;25.00;24.75;;;;;20.66;40.27;102056.53;5099357;27;45364;-76
2024/01/31 09:06:22;;;;;;;;;26.75;24.50;;;;;21.25;39.20;102056.31;5098805;27;45524;-76
2024/01/31 09:08:48;;;;;;;;;27.00;25.50;;;;;21.89;37.88;102062.22;5098977;27;45416;-77
2024/01/31 09:11:14;;;;;;;;;18.00;14.75;;;;;22.27;37.58;102054.50;5099203;27;45518;-77
2024/01/31 09:13:41;;;;;;;;;25.50;23.25;;;;;22.57;36.55;102043.09;5098683;27;45890;-77
2024/01/31 09:16:08;;;;;;;;;22.00;21.00;;;;;22.72;35.72;102022.72;5098930;27;45370;-77
2024/01/31 09:18:33;;;;;;;;;22.75;18.50;;;;;23.25;36.63;102069.09;5098957;27;45491;-78
2024/01/31 09:20:59;;;;;;;;;23.25;20.00;;;;;23.50;35.00;102062.03;5098904;27;45610;-78
2024/01/31 09:23:25;;;;;;;;;22.00;19.25;;;;;23.45;35.15;102010.44;5098872;27;45402;-78
2024/01/31 09:25:51;;;;;;;;;22.25;20.25;;;;;23.85;35.12;102051.34;5098744;27;45397;-78
2024/01/31 09:28:17;;;;;;;;;18.25;17.25;;;;;23.60;34.52;101989.97;5098664;27;45482;-78
2024/01/31 09:30:44;;;;;;;;;20.00;17.50;;;;;24.13;33.80;102048.63;5098688;27;45351;-79
2024/01/31 09:33:10;;;;;;;;;22.25;21.50;;;;;24.24;32.22;102054.84;5098262;27;46635;-78
2024/01/31 09:35:36;;;;;;;;;22.50;21.50;;;;;23.62;33.70;102006.00;5098439;27;45172;-78
2024/01/31 09:38:01;;;;;;;;;23.00;21.00;;;;;23.97;33.83;102047.78;5098356;27;45369;-79
2024/01/31 09:40:27;;;;;;;;;18.75;17.50;;;;;24.13;33.49;102052.22;5099116;27;45389;-78
2024/01/31 09:42:54;;;;;;;;;17.50;17.50;;;;;23.99;32.50;102016.63;5098296;27;45401;-79
2024/01/31 09:45:21;;;;;;;;;22.00;20.25;;;;;23.94;32.91;102037.13;5098395;27;45369;-79
2024/01/31 09:47:47;;;;;;;;;20.67;18.00;;;;;23.91;33.46;102051.34;5097186;27;45378;-79
2024/01/31 09:50:13;;;;;;;;;18.50;18.50;;;;;23.75;33.35;102039.75;5098305;27;45218;-79
2024/01/31 09:52:42;;;;;;;;;21.00;19.33;;;;;23.59;32.67;102022.00;5097606;27;45462;-79
2024/01/31 09:55:10;;;;;;;;;21.33;19.67;;;;;23.78;32.91;102062.94;5098151;27;45453;-79
2024/01/31 09:57:36;;;;;;;;;20.33;20.00;;;;;23.34;32.64;102003.34;5098209;27;45472;-79
2024/01/31 10:00:04;;;;;;;;;23.25;23.25;;;;;23.44;33.30;102049.56;5098150;27;45342;-80
2024/01/31 10:02:31;;;;;;;;;24.50;23.00;;;;;23.48;33.98;102077.13;5098413;27;45293;-79
2024/01/31 10:04:57;;;;;;;;;19.33;17.67;;;;;23.40;34.62;102072.66;5098397;27;45519;-80
2024/01/31 10:07:30;;;;;;;;;23.75;21.25;;;;;23.30;32.96;102075.31;5097727;27;45251;-80
2024/01/31 10:09:56;;;;;;;;;24.50;21.50;;;;;23.23;33.63;102072.63;5098164;27;45424;-80
2024/01/31 10:12:23;;;;;;;;;20.67;19.00;;;;;23.06;33.58;102073.47;5097962;27;46098;-80
2024/01/31 10:14:52;;;;;;;;;22.50;20.75;;;;;22.53;34.39;102009.34;5097927;27;45550;-80
2024/01/31 10:17:22;;;;;;;;;19.75;18.00;;;;;22.80;34.86;102082.25;5097954;27;45195;-78
2024/01/31 10:19:51;;;;;;;;;21.00;19.33;;;;;22.37;34.17;102035.03;5098057;27;45292;-80
2024/01/31 10:22:17;;;;;;;;;24.75;22.75;;;;;22.04;35.14;101991.38;5097788;27;45474;-81
2024/01/31 10:24:49;;;;;;;;;20.00;17.33;;;;;22.34;34.91;102064.31;5097837;27;45337;-81
2024/01/31 10:27:14;;;;;;;;;19.67;18.67;;;;;22.38;34.97;102082.09;5098160;27;45563;-81
2024/01/31 10:29:40;;;;;;;;;19.00;18.00;;;;;22.31;35.64;102082.91;5097904;27;45373;-81
2024/01/31 10:32:06;;;;;;;;;17.25;16.25;;;;;22.36;35.92;102081.19;5097325;27;46470;-81
2024/01/31 10:34:34;;;;;;;;;21.00;19.00;;;;;22.43;35.32;102080.31;5097775;27;45285;-80
2024/01/31 10:37:01;;;;;;;;;28.75;20.50;;;;;21.75;35.16;101980.53;5097995;27;45441;-81
2024/01/31 10:39:28;;;;;;;;;24.75;22.75;;;;;22.09;35.16;102062.34;5097796;27;45376;-81
2024/01/31 10:41:55;;;;;;;;;20.50;19.00;;;;;22.08;36.28;102080.06;5097374;27;45982;-81
2024/01/31 10:44:21;;;;;;;;;15.33;14.67;;;;;22.17;36.54;102085.47;5097397;27;45563;-81
2024/01/31 10:46:47;;;;;;;;;17.67;16.33;;;;;22.30;36.34;102078.47;5097656;27;45483;-81
2024/01/31 10:49:15;;;;;;;;;18.33;17.33;;;;;;;;5097747;27;45556;-80
2024/01/31 10:51:43;;;;;;;;;22.00;21.75;;;;;22.24;35.81;102086.41;5097483;27;46213;-81
2024/01/31 10:54:09;;;;;;;;;18.00;18.00;;;;;22.20;36.55;102084.56;5097174;27;45510;-81
2024/01/31 10:56:37;;;;;;;;;26.00;21.33;;;;;22.26;36.32;102084.66;5097408;27;45396;-80
2024/01/31 10:59:07;;;;;;;;;20.25;19.25;;;;;22.18;36.33;102067.72;5098049;27;45560;-81
2024/01/31 11:01:32;;;;;;;;;29.25;26.00;;;;;22.23;36.34;102063.31;5097369;27;45673;-81
2024/01/31 11:04:02;;;;;;;;;21.50;20.00;;;;;22.21;36.39;102057.09;5099301;27;45491;-81
2024/01/31 11:06:51;;;;;;;;;24.50;23.25;;;;;22.22;37.75;102062.44;5101086;27;45170;-81